sensor_id;sensor_type;location;lat;lon;timestamp;pressure;altitude;pressure_sealevel;temperature;humidity
76337;BME280;65157;50.082;18.178;2023-07-29T00:02:07;98625.58;;;18.88;74.04
76337;BME280;65157;50.082;18.178;2023-07-29T00:04:33;98627.71;;;18.91;73.82
76337;BME280;65157;50.082;18.178;2023-07-29T00:06:59;98622.06;;;18.91;73.84
76337;BME280;65157;50.082;18.178;2023-07-29T00:09:25;98625.46;;;18.92;74.15
76337;BME280;65157;50.082;18.178;2023-07-29T00:11:51;98620.67;;;18.91;74.40
76337;BME280;65157;50.082;18.178;2023-07-29T00:14:16;98624.05;;;18.92;74.42
76337;BME280;65157;50.082;18.178;2023-07-29T00:16:42;98620.34;;;18.91;74.48
76337;BME280;65157;50.082;18.178;2023-07-29T00:19:08;98624.55;;;18.90;74.55
76337;BME280;65157;50.082;18.178;2023-07-29T00:21:34;98622.61;;;18.88;74.85
76337;BME280;65157;50.082;18.178;2023-07-29T00:24:00;98623.04;;;18.85;74.71
76337;BME280;65157;50.082;18.178;2023-07-29T00:26:26;98623.63;;;18.84;74.63
76337;BME280;65157;50.082;18.178;2023-07-29T00:28:52;98625.85;;;18.83;74.64
76337;BME280;65157;50.082;18.178;2023-07-29T00:31:18;98623.54;;;18.83;75.00
76337;BME280;65157;50.082;18.178;2023-07-29T00:33:44;98621.18;;;18.81;74.91
76337;BME280;65157;50.082;18.178;2023-07-29T00:36:10;98623.08;;;18.80;74.97
76337;BME280;65157;50.082;18.178;2023-07-29T00:38:35;98627.08;;;18.79;74.88
76337;BME280;65157;50.082;18.178;2023-07-29T00:41:02;98626.07;;;18.77;75.12
76337;BME280;65157;50.082;18.178;2023-07-29T00:43:29;98626.10;;;18.74;75.36
76337;BME280;65157;50.082;18.178;2023-07-29T00:45:55;98628.46;;;18.72;75.31
76337;BME280;65157;50.082;18.178;2023-07-29T00:48:21;98626.30;;;18.70;75.42
76337;BME280;65157;50.082;18.178;2023-07-29T00:50:48;98630.70;;;18.66;75.45
76337;BME280;65157;50.082;18.178;2023-07-29T00:53:14;98638.02;;;18.64;75.40
76337;BME280;65157;50.082;18.178;2023-07-29T00:55:41;98634.58;;;18.60;75.58
76337;BME280;65157;50.082;18.178;2023-07-29T00:58:07;98635.36;;;18.58;75.69
76337;BME280;65157;50.082;18.178;2023-07-29T01:00:33;98629.66;;;18.55;75.88
76337;BME280;65157;50.082;18.178;2023-07-29T01:02:59;98628.11;;;18.52;75.81
76337;BME280;65157;50.082;18.178;2023-07-29T01:05:32;98627.45;;;18.50;75.82
76337;BME280;65157;50.082;18.178;2023-07-29T01:08:50;98629.20;;;18.48;75.77
76337;BME280;65157;50.082;18.178;2023-07-29T01:14:05;98633.69;;;18.43;75.84
76337;BME280;65157;50.082;18.178;2023-07-29T01:16:41;98633.40;;;18.40;75.95
76337;BME280;65157;50.082;18.178;2023-07-29T01:19:21;98632.33;;;18.36;75.99
76337;BME280;65157;50.082;18.178;2023-07-29T01:21:52;98633.86;;;18.33;76.05
76337;BME280;65157;50.082;18.178;2023-07-29T01:24:18;98629.84;;;18.30;76.04
76337;BME280;65157;50.082;18.178;2023-07-29T01:26:44;98633.95;;;18.28;76.14
76337;BME280;65157;50.082;18.178;2023-07-29T01:29:09;98632.72;;;18.25;76.17
76337;BME280;65157;50.082;18.178;2023-07-29T01:31:42;98633.11;;;18.21;76.28
76337;BME280;65157;50.082;18.178;2023-07-29T01:34:15;98632.42;;;18.16;76.29
76337;BME280;65157;50.082;18.178;2023-07-29T01:36:44;98637.02;;;18.13;76.45
76337;BME280;65157;50.082;18.178;2023-07-29T01:39:12;98635.85;;;18.09;76.46
76337;BME280;65157;50.082;18.178;2023-07-29T01:41:39;98632.92;;;18.04;76.42
76337;BME280;65157;50.082;18.178;2023-07-29T01:44:06;98635.19;;;18.02;76.52
76337;BME280;65157;50.082;18.178;2023-07-29T01:46:36;98631.39;;;18.00;76.56
76337;BME280;65157;50.082;18.178;2023-07-29T01:49:02;98627.09;;;17.98;76.57
76337;BME280;65157;50.082;18.178;2023-07-29T01:51:28;98630.30;;;17.96;76.49
76337;BME280;65157;50.082;18.178;2023-07-29T01:53:54;98628.05;;;17.93;76.45
76337;BME280;65157;50.082;18.178;2023-07-29T01:56:20;98624.73;;;17.90;76.59
76337;BME280;65157;50.082;18.178;2023-07-29T01:58:45;98629.63;;;17.85;76.91
76337;BME280;65157;50.082;18.178;2023-07-29T02:01:11;98633.80;;;17.80;76.83
76337;BME280;65157;50.082;18.178;2023-07-29T02:03:37;98634.73;;;17.80;76.80
76337;BME280;65157;50.082;18.178;2023-07-29T02:06:03;98634.20;;;17.77;76.89
76337;BME280;65157;50.082;18.178;2023-07-29T02:08:30;98635.46;;;17.75;76.77
76337;BME280;65157;50.082;18.178;2023-07-29T02:10:56;98637.39;;;17.71;76.80
76337;BME280;65157;50.082;18.178;2023-07-29T02:13:22;98642.98;;;17.68;76.84
76337;BME280;65157;50.082;18.178;2023-07-29T02:15:48;98636.02;;;17.66;76.78
76337;BME280;65157;50.082;18.178;2023-07-29T02:18:15;98638.11;;;17.65;76.87
76337;BME280;65157;50.082;18.178;2023-07-29T02:20:40;98637.05;;;17.62;76.96
76337;BME280;65157;50.082;18.178;2023-07-29T02:23:06;98633.63;;;17.58;76.86
76337;BME280;65157;50.082;18.178;2023-07-29T02:25:35;98629.40;;;17.53;76.72
76337;BME280;65157;50.082;18.178;2023-07-29T02:28:01;98632.56;;;17.53;76.69
76337;BME280;65157;50.082;18.178;2023-07-29T02:30:27;98634.55;;;17.50;76.98
76337;BME280;65157;50.082;18.178;2023-07-29T02:32:53;98632.08;;;17.48;76.86
76337;BME280;65157;50.082;18.178;2023-07-29T02:35:19;98631.79;;;17.45;76.87
76337;BME280;65157;50.082;18.178;2023-07-29T02:37:45;98635.60;;;17.42;76.88
76337;BME280;65157;50.082;18.178;2023-07-29T02:40:11;98638.98;;;17.40;76.95
76337;BME280;65157;50.082;18.178;2023-07-29T02:42:37;98641.03;;;17.39;76.92
76337;BME280;65157;50.082;18.178;2023-07-29T02:45:03;98634.90;;;17.37;77.03
76337;BME280;65157;50.082;18.178;2023-07-29T02:47:29;98636.42;;;17.34;77.20
76337;BME280;65157;50.082;18.178;2023-07-29T02:49:55;98640.48;;;17.30;77.17
76337;BME280;65157;50.082;18.178;2023-07-29T02:52:22;98640.52;;;17.28;77.09
76337;BME280;65157;50.082;18.178;2023-07-29T02:54:49;98639.20;;;17.24;77.15
76337;BME280;65157;50.082;18.178;2023-07-29T02:57:15;98641.94;;;17.23;77.85
76337;BME280;65157;50.082;18.178;2023-07-29T02:59:41;98646.23;;;17.23;78.37
76337;BME280;65157;50.082;18.178;2023-07-29T03:02:07;98649.91;;;17.24;78.67
76337;BME280;65157;50.082;18.178;2023-07-29T03:04:33;98649.45;;;17.23;78.95
76337;BME280;65157;50.082;18.178;2023-07-29T03:06:59;98646.30;;;17.22;78.91
76337;BME280;65157;50.082;18.178;2023-07-29T03:09:24;98646.64;;;17.20;78.95
76337;BME280;65157;50.082;18.178;2023-07-29T03:11:50;98655.71;;;17.20;79.04
76337;BME280;65157;50.082;18.178;2023-07-29T03:14:16;98654.54;;;17.20;79.02
76337;BME280;65157;50.082;18.178;2023-07-29T03:16:42;98659.81;;;17.18;79.02
76337;BME280;65157;50.082;18.178;2023-07-29T03:19:08;98657.52;;;17.18;78.95
76337;BME280;65157;50.082;18.178;2023-07-29T03:21:34;98654.88;;;17.17;78.99
76337;BME280;65157;50.082;18.178;2023-07-29T03:24:00;98655.59;;;17.17;79.10
76337;BME280;65157;50.082;18.178;2023-07-29T03:26:29;98651.92;;;17.16;78.98
76337;BME280;65157;50.082;18.178;2023-07-29T03:28:54;98648.89;;;17.16;79.11
76337;BME280;65157;50.082;18.178;2023-07-29T03:31:20;98652.27;;;17.14;79.11
76337;BME280;65157;50.082;18.178;2023-07-29T03:33:46;98647.63;;;17.12;79.08
76337;BME280;65157;50.082;18.178;2023-07-29T03:36:12;98649.67;;;17.11;79.10
76337;BME280;65157;50.082;18.178;2023-07-29T03:38:38;98646.72;;;17.12;79.11
76337;BME280;65157;50.082;18.178;2023-07-29T03:41:04;98648.55;;;17.14;79.24
76337;BME280;65157;50.082;18.178;2023-07-29T03:43:30;98646.87;;;17.13;79.34
76337;BME280;65157;50.082;18.178;2023-07-29T03:45:56;98648.16;;;17.12;79.59
76337;BME280;65157;50.082;18.178;2023-07-29T03:48:21;98651.94;;;17.12;79.40
76337;BME280;65157;50.082;18.178;2023-07-29T03:50:47;98655.87;;;17.14;79.51
76337;BME280;65157;50.082;18.178;2023-07-29T03:53:13;98660.05;;;17.15;79.26
76337;BME280;65157;50.082;18.178;2023-07-29T03:55:39;98660.98;;;17.17;79.23
76337;BME280;65157;50.082;18.178;2023-07-29T03:58:05;98664.16;;;17.20;79.41
76337;BME280;65157;50.082;18.178;2023-07-29T04:00:31;98666.02;;;17.21;79.23
76337;BME280;65157;50.082;18.178;2023-07-29T04:02:57;98664.33;;;17.24;79.09
76337;BME280;65157;50.082;18.178;2023-07-29T04:05:23;98662.25;;;17.28;79.45
76337;BME280;65157;50.082;18.178;2023-07-29T04:07:49;98665.52;;;17.29;79.58
76337;BME280;65157;50.082;18.178;2023-07-29T04:10:15;98667.36;;;17.31;79.61
76337;BME280;65157;50.082;18.178;2023-07-29T04:12:42;98668.04;;;17.34;79.65
76337;BME280;65157;50.082;18.178;2023-07-29T04:15:08;98668.71;;;17.36;79.43
76337;BME280;65157;50.082;18.178;2023-07-29T04:17:34;98672.74;;;17.39;79.37
76337;BME280;65157;50.082;18.178;2023-07-29T04:20:01;98667.36;;;17.40;79.76
76337;BME280;65157;50.082;18.178;2023-07-29T04:22:27;98673.13;;;17.44;79.92
76337;BME280;65157;50.082;18.178;2023-07-29T04:24:53;98672.99;;;17.45;79.94
76337;BME280;65157;50.082;18.178;2023-07-29T04:27:19;98673.85;;;17.48;80.01
76337;BME280;65157;50.082;18.178;2023-07-29T04:29:44;98671.52;;;17.50;79.96
76337;BME280;65157;50.082;18.178;2023-07-29T04:32:10;98680.98;;;17.55;79.99
76337;BME280;65157;50.082;18.178;2023-07-29T04:34:36;98681.49;;;17.58;80.18
76337;BME280;65157;50.082;18.178;2023-07-29T04:37:02;98689.54;;;17.64;80.53
76337;BME280;65157;50.082;18.178;2023-07-29T04:39:28;98688.27;;;17.67;80.83
76337;BME280;65157;50.082;18.178;2023-07-29T04:41:54;98681.95;;;17.70;80.59
76337;BME280;65157;50.082;18.178;2023-07-29T04:44:20;98686.02;;;17.77;80.51
76337;BME280;65157;50.082;18.178;2023-07-29T04:46:46;98684.09;;;17.81;80.75
76337;BME280;65157;50.082;18.178;2023-07-29T04:49:13;98681.67;;;17.84;80.92
76337;BME280;65157;50.082;18.178;2023-07-29T04:51:39;98686.84;;;17.89;80.86
76337;BME280;65157;50.082;18.178;2023-07-29T04:54:05;98686.15;;;17.90;80.66
76337;BME280;65157;50.082;18.178;2023-07-29T04:56:31;98689.80;;;17.94;80.80
76337;BME280;65157;50.082;18.178;2023-07-29T04:58:57;98692.42;;;17.94;81.16
76337;BME280;65157;50.082;18.178;2023-07-29T05:01:22;98700.20;;;17.96;81.31
76337;BME280;65157;50.082;18.178;2023-07-29T05:03:48;98702.42;;;17.96;81.15
76337;BME280;65157;50.082;18.178;2023-07-29T05:06:14;98695.95;;;17.97;81.12
76337;BME280;65157;50.082;18.178;2023-07-29T05:08:40;98696.61;;;18.02;80.78
76337;BME280;65157;50.082;18.178;2023-07-29T05:11:06;98692.67;;;18.07;80.52
76337;BME280;65157;50.082;18.178;2023-07-29T05:13:32;98691.97;;;18.13;80.61
76337;BME280;65157;50.082;18.178;2023-07-29T05:15:58;98693.56;;;18.18;80.69
76337;BME280;65157;50.082;18.178;2023-07-29T05:18:24;98693.04;;;18.22;80.55
76337;BME280;65157;50.082;18.178;2023-07-29T05:20:49;98693.02;;;18.31;81.07
76337;BME280;65157;50.082;18.178;2023-07-29T05:23:15;98692.72;;;18.41;80.82
76337;BME280;65157;50.082;18.178;2023-07-29T05:25:41;98691.45;;;18.49;80.70
76337;BME280;65157;50.082;18.178;2023-07-29T05:28:07;98691.14;;;18.60;79.93
76337;BME280;65157;50.082;18.178;2023-07-29T05:30:33;98692.45;;;18.70;79.86
76337;BME280;65157;50.082;18.178;2023-07-29T05:33:00;98688.38;;;18.82;80.00
76337;BME280;65157;50.082;18.178;2023-07-29T05:35:26;98685.67;;;18.96;79.99
76337;BME280;65157;50.082;18.178;2023-07-29T05:37:52;98683.82;;;19.16;80.04
76337;BME280;65157;50.082;18.178;2023-07-29T05:40:18;98684.56;;;19.39;79.45
76337;BME280;65157;50.082;18.178;2023-07-29T05:42:44;98683.89;;;19.58;79.17
76337;BME280;65157;50.082;18.178;2023-07-29T05:45:12;98680.14;;;19.76;78.63
76337;BME280;65157;50.082;18.178;2023-07-29T05:47:38;98682.02;;;19.93;78.14
76337;BME280;65157;50.082;18.178;2023-07-29T05:50:04;98684.46;;;20.06;77.69
76337;BME280;65157;50.082;18.178;2023-07-29T05:52:31;98684.73;;;20.16;77.67
76337;BME280;65157;50.082;18.178;2023-07-29T05:54:57;98685.04;;;20.27;77.18
76337;BME280;65157;50.082;18.178;2023-07-29T05:57:23;98687.30;;;20.36;76.69
76337;BME280;65157;50.082;18.178;2023-07-29T05:59:49;98690.17;;;20.48;76.41
76337;BME280;65157;50.082;18.178;2023-07-29T06:02:16;98689.05;;;20.60;76.06
76337;BME280;65157;50.082;18.178;2023-07-29T06:04:41;98695.29;;;20.68;76.02
76337;BME280;65157;50.082;18.178;2023-07-29T06:07:08;98698.01;;;20.75;75.74
76337;BME280;65157;50.082;18.178;2023-07-29T06:09:34;98698.73;;;20.82;74.69
76337;BME280;65157;50.082;18.178;2023-07-29T06:12:00;98697.92;;;20.88;74.52
76337;BME280;65157;50.082;18.178;2023-07-29T06:14:26;98696.91;;;20.92;74.21
76337;BME280;65157;50.082;18.178;2023-07-29T06:16:53;98703.70;;;20.97;74.05
76337;BME280;65157;50.082;18.178;2023-07-29T06:19:20;98705.25;;;21.01;73.96
76337;BME280;65157;50.082;18.178;2023-07-29T06:21:48;98708.66;;;21.07;74.00
76337;BME280;65157;50.082;18.178;2023-07-29T06:24:13;98705.02;;;21.11;73.83
76337;BME280;65157;50.082;18.178;2023-07-29T06:26:41;98707.36;;;21.17;73.78
76337;BME280;65157;50.082;18.178;2023-07-29T06:29:07;98711.49;;;21.21;73.83
76337;BME280;65157;50.082;18.178;2023-07-29T06:31:33;98708.01;;;21.25;73.70
76337;BME280;65157;50.082;18.178;2023-07-29T06:34:01;98713.77;;;21.32;73.31
76337;BME280;65157;50.082;18.178;2023-07-29T06:36:28;98712.36;;;21.38;73.03
76337;BME280;65157;50.082;18.178;2023-07-29T06:38:54;98714.58;;;21.49;72.93
76337;BME280;65157;50.082;18.178;2023-07-29T06:41:19;98716.01;;;21.66;72.63
76337;BME280;65157;50.082;18.178;2023-07-29T06:43:45;98715.20;;;21.87;72.77
76337;BME280;65157;50.082;18.178;2023-07-29T06:46:11;98716.88;;;22.16;71.46
76337;BME280;65157;50.082;18.178;2023-07-29T06:48:37;98717.28;;;22.38;70.20
76337;BME280;65157;50.082;18.178;2023-07-29T06:51:03;98707.85;;;22.50;69.44
76337;BME280;65157;50.082;18.178;2023-07-29T06:53:29;98710.47;;;22.62;68.63
76337;BME280;65157;50.082;18.178;2023-07-29T06:55:55;98709.73;;;22.73;67.58
76337;BME280;65157;50.082;18.178;2023-07-29T06:58:21;98708.08;;;22.82;67.00
76337;BME280;65157;50.082;18.178;2023-07-29T07:00:48;98706.69;;;22.87;66.45
76337;BME280;65157;50.082;18.178;2023-07-29T07:03:14;98704.80;;;22.91;66.25
76337;BME280;65157;50.082;18.178;2023-07-29T07:05:40;98695.76;;;23.04;66.30
76337;BME280;65157;50.082;18.178;2023-07-29T07:08:06;98695.04;;;23.23;66.15
76337;BME280;65157;50.082;18.178;2023-07-29T07:10:32;98696.34;;;23.38;66.05
76337;BME280;65157;50.082;18.178;2023-07-29T07:12:58;98696.45;;;23.51;66.08
76337;BME280;65157;50.082;18.178;2023-07-29T07:15:24;98691.34;;;23.60;65.09
76337;BME280;65157;50.082;18.178;2023-07-29T07:17:51;98694.16;;;23.64;65.13
76337;BME280;65157;50.082;18.178;2023-07-29T07:20:17;98688.70;;;23.63;65.43
76337;BME280;65157;50.082;18.178;2023-07-29T07:22:43;98692.52;;;23.66;64.92
76337;BME280;65157;50.082;18.178;2023-07-29T07:25:09;98697.82;;;23.71;64.92
76337;BME280;65157;50.082;18.178;2023-07-29T07:27:37;98692.65;;;23.78;64.26
76337;BME280;65157;50.082;18.178;2023-07-29T07:30:03;98690.98;;;23.89;64.23
76337;BME280;65157;50.082;18.178;2023-07-29T07:32:29;98690.48;;;24.04;64.09
76337;BME280;65157;50.082;18.178;2023-07-29T07:34:55;98690.27;;;24.20;63.21
76337;BME280;65157;50.082;18.178;2023-07-29T07:37:21;98683.77;;;24.33;62.29
76337;BME280;65157;50.082;18.178;2023-07-29T07:39:47;98681.49;;;24.49;62.98
76337;BME280;65157;50.082;18.178;2023-07-29T07:42:13;98684.88;;;24.66;62.56
76337;BME280;65157;50.082;18.178;2023-07-29T07:44:39;98684.95;;;24.78;61.57
76337;BME280;65157;50.082;18.178;2023-07-29T07:47:05;98686.35;;;24.89;60.82
76337;BME280;65157;50.082;18.178;2023-07-29T07:49:31;98680.38;;;24.95;60.83
76337;BME280;65157;50.082;18.178;2023-07-29T07:51:57;98683.59;;;25.05;60.70
76337;BME280;65157;50.082;18.178;2023-07-29T07:54:23;98683.75;;;25.12;60.05
76337;BME280;65157;50.082;18.178;2023-07-29T07:56:49;98681.70;;;25.17;59.60
76337;BME280;65157;50.082;18.178;2023-07-29T07:59:15;98677.86;;;25.19;58.83
76337;BME280;65157;50.082;18.178;2023-07-29T08:01:44;98681.05;;;25.21;58.56
76337;BME280;65157;50.082;18.178;2023-07-29T08:04:10;98677.05;;;25.25;58.58
76337;BME280;65157;50.082;18.178;2023-07-29T08:06:35;98676.23;;;25.40;58.31
76337;BME280;65157;50.082;18.178;2023-07-29T08:09:01;98676.17;;;25.47;58.11
76337;BME280;65157;50.082;18.178;2023-07-29T08:11:27;98671.55;;;25.50;57.53
76337;BME280;65157;50.082;18.178;2023-07-29T08:13:54;98667.86;;;25.49;57.28
76337;BME280;65157;50.082;18.178;2023-07-29T08:16:20;98668.83;;;25.51;57.41
76337;BME280;65157;50.082;18.178;2023-07-29T08:18:46;98670.75;;;25.72;57.37
76337;BME280;65157;50.082;18.178;2023-07-29T08:21:12;98669.64;;;25.96;57.18
76337;BME280;65157;50.082;18.178;2023-07-29T08:23:37;98669.06;;;26.19;55.82
76337;BME280;65157;50.082;18.178;2023-07-29T08:26:05;98662.30;;;26.36;55.83
76337;BME280;65157;50.082;18.178;2023-07-29T08:28:37;98658.22;;;26.49;56.15
76337;BME280;65157;50.082;18.178;2023-07-29T08:31:07;98649.47;;;26.68;54.87
76337;BME280;65157;50.082;18.178;2023-07-29T08:33:33;98649.68;;;26.84;54.74
76337;BME280;65157;50.082;18.178;2023-07-29T08:36:00;98642.87;;;26.99;54.09
76337;BME280;65157;50.082;18.178;2023-07-29T08:38:26;98648.85;;;27.07;54.12
76337;BME280;65157;50.082;18.178;2023-07-29T08:43:31;98643.25;;;27.06;53.75
76337;BME280;65157;50.082;18.178;2023-07-29T08:46:01;98644.73;;;27.23;53.97
76337;BME280;65157;50.082;18.178;2023-07-29T08:48:40;98639.52;;;27.38;53.22
76337;BME280;65157;50.082;18.178;2023-07-29T08:51:08;98638.69;;;27.29;53.37
76337;BME280;65157;50.082;18.178;2023-07-29T08:53:35;98638.59;;;27.08;53.77
76337;BME280;65157;50.082;18.178;2023-07-29T08:56:02;98632.23;;;26.93;54.45
76337;BME280;65157;50.082;18.178;2023-07-29T08:58:29;98631.48;;;26.84;54.79
76337;BME280;65157;50.082;18.178;2023-07-29T09:00:55;98631.54;;;26.79;54.92
76337;BME280;65157;50.082;18.178;2023-07-29T09:03:21;98630.60;;;26.76;55.18
76337;BME280;65157;50.082;18.178;2023-07-29T09:05:47;98630.90;;;26.72;54.97
76337;BME280;65157;50.082;18.178;2023-07-29T09:08:15;98627.30;;;26.78;55.13
76337;BME280;65157;50.082;18.178;2023-07-29T09:10:41;98627.33;;;26.75;54.23
76337;BME280;65157;50.082;18.178;2023-07-29T09:13:07;98631.52;;;26.67;54.03
76337;BME280;65157;50.082;18.178;2023-07-29T09:15:36;98629.51;;;26.58;53.53
76337;BME280;65157;50.082;18.178;2023-07-29T09:18:30;98632.55;;;26.55;52.27
76337;BME280;65157;50.082;18.178;2023-07-29T09:20:59;98628.36;;;26.66;51.93
76337;BME280;65157;50.082;18.178;2023-07-29T09:23:25;98629.95;;;26.71;52.55
76337;BME280;65157;50.082;18.178;2023-07-29T09:26:01;98626.66;;;26.71;52.09
76337;BME280;65157;50.082;18.178;2023-07-29T09:28:33;98625.59;;;26.65;51.90
76337;BME280;65157;50.082;18.178;2023-07-29T09:30:59;98629.42;;;26.60;51.99
76337;BME280;65157;50.082;18.178;2023-07-29T09:33:26;98614.48;;;26.53;52.97
76337;BME280;65157;50.082;18.178;2023-07-29T09:35:52;98617.34;;;26.81;53.48
76337;BME280;65157;50.082;18.178;2023-07-29T09:38:26;98612.34;;;27.10;52.33
76337;BME280;65157;50.082;18.178;2023-07-29T09:40:54;98606.62;;;27.14;51.28
76337;BME280;65157;50.082;18.178;2023-07-29T09:43:26;98602.73;;;27.13;51.72
76337;BME280;65157;50.082;18.178;2023-07-29T09:45:55;98600.56;;;27.22;51.19
76337;BME280;65157;50.082;18.178;2023-07-29T09:48:24;98600.31;;;27.23;51.85
76337;BME280;65157;50.082;18.178;2023-07-29T09:50:50;98595.33;;;27.25;51.94
76337;BME280;65157;50.082;18.178;2023-07-29T09:53:16;98601.21;;;27.33;52.01
76337;BME280;65157;50.082;18.178;2023-07-29T09:55:47;98596.14;;;27.43;52.10
76337;BME280;65157;50.082;18.178;2023-07-29T09:58:13;98588.76;;;27.65;52.00
76337;BME280;65157;50.082;18.178;2023-07-29T10:00:40;98586.93;;;27.88;51.41
76337;BME280;65157;50.082;18.178;2023-07-29T10:03:06;98586.93;;;27.91;50.95
76337;BME280;65157;50.082;18.178;2023-07-29T10:05:32;98591.75;;;27.98;51.08
76337;BME280;65157;50.082;18.178;2023-07-29T10:07:58;98595.02;;;28.10;51.34
76337;BME280;65157;50.082;18.178;2023-07-29T10:10:25;98590.92;;;28.11;50.97
76337;BME280;65157;50.082;18.178;2023-07-29T10:12:53;98587.14;;;27.98;51.47
76337;BME280;65157;50.082;18.178;2023-07-29T10:15:20;98583.57;;;27.94;51.54
76337;BME280;65157;50.082;18.178;2023-07-29T10:17:46;98588.95;;;27.91;50.91
76337;BME280;65157;50.082;18.178;2023-07-29T10:20:13;98590.58;;;27.91;50.79
76337;BME280;65157;50.082;18.178;2023-07-29T10:22:41;98589.56;;;27.98;50.47
76337;BME280;65157;50.082;18.178;2023-07-29T10:25:13;98591.96;;;28.10;50.64
76337;BME280;65157;50.082;18.178;2023-07-29T10:28:01;98589.14;;;28.22;50.52
76337;BME280;65157;50.082;18.178;2023-07-29T10:30:30;98583.75;;;28.31;50.34
76337;BME280;65157;50.082;18.178;2023-07-29T10:32:58;98581.42;;;28.45;50.62
76337;BME280;65157;50.082;18.178;2023-07-29T10:35:28;98581.73;;;28.59;49.41
76337;BME280;65157;50.082;18.178;2023-07-29T10:37:54;98582.52;;;28.64;49.38
76337;BME280;65157;50.082;18.178;2023-07-29T10:40:21;98580.47;;;28.71;48.14
76337;BME280;65157;50.082;18.178;2023-07-29T10:43:10;98581.09;;;28.76;48.52
76337;BME280;65157;50.082;18.178;2023-07-29T10:45:40;98574.95;;;28.86;48.18
76337;BME280;65157;50.082;18.178;2023-07-29T10:48:09;98574.70;;;28.79;48.39
76337;BME280;65157;50.082;18.178;2023-07-29T10:50:36;98577.40;;;28.64;48.24
76337;BME280;65157;50.082;18.178;2023-07-29T10:53:02;98573.06;;;28.35;47.97
76337;BME280;65157;50.082;18.178;2023-07-29T10:55:30;98570.63;;;28.13;48.49
76337;BME280;65157;50.082;18.178;2023-07-29T10:58:14;98575.12;;;27.97;49.37
76337;BME280;65157;50.082;18.178;2023-07-29T11:00:42;98576.52;;;27.79;49.91
76337;BME280;65157;50.082;18.178;2023-07-29T11:03:08;98580.81;;;27.62;51.10
76337;BME280;65157;50.082;18.178;2023-07-29T11:05:44;98582.27;;;27.53;52.45
76337;BME280;65157;50.082;18.178;2023-07-29T11:11:07;98576.92;;;27.24;54.67
76337;BME280;65157;50.082;18.178;2023-07-29T11:13:37;98573.84;;;27.20;55.05
76337;BME280;65157;50.082;18.178;2023-07-29T11:16:04;98571.88;;;27.22;54.87
76337;BME280;65157;50.082;18.178;2023-07-29T11:18:32;98568.36;;;27.24;55.04
76337;BME280;65157;50.082;18.178;2023-07-29T11:20:59;98563.91;;;27.37;54.61
76337;BME280;65157;50.082;18.178;2023-07-29T11:23:36;98560.03;;;27.60;53.46
76337;BME280;65157;50.082;18.178;2023-07-29T11:26:03;98556.82;;;27.84;53.20
76337;BME280;65157;50.082;18.178;2023-07-29T11:28:30;98556.73;;;27.93;51.32
76337;BME280;65157;50.082;18.178;2023-07-29T11:30:56;98554.64;;;28.00;51.20
76337;BME280;65157;50.082;18.178;2023-07-29T11:33:25;98556.59;;;27.99;50.35
76337;BME280;65157;50.082;18.178;2023-07-29T11:35:51;98554.33;;;27.98;51.34
76337;BME280;65157;50.082;18.178;2023-07-29T11:38:19;98547.89;;;28.09;50.47
76337;BME280;65157;50.082;18.178;2023-07-29T11:41:18;98547.03;;;28.22;49.88
76337;BME280;65157;50.082;18.178;2023-07-29T11:43:45;98541.30;;;28.34;49.10
76337;BME280;65157;50.082;18.178;2023-07-29T11:46:11;98538.20;;;28.34;47.98
76337;BME280;65157;50.082;18.178;2023-07-29T11:48:37;98531.41;;;28.22;48.29
76337;BME280;65157;50.082;18.178;2023-07-29T11:51:03;98530.80;;;28.19;48.52
76337;BME280;65157;50.082;18.178;2023-07-29T11:53:29;98526.71;;;28.22;48.83
76337;BME280;65157;50.082;18.178;2023-07-29T11:55:56;98518.30;;;28.22;48.46
76337;BME280;65157;50.082;18.178;2023-07-29T11:58:23;98519.84;;;28.26;48.64
76337;BME280;65157;50.082;18.178;2023-07-29T12:00:49;98522.23;;;28.21;47.47
76337;BME280;65157;50.082;18.178;2023-07-29T12:03:16;98523.38;;;28.08;48.32
76337;BME280;65157;50.082;18.178;2023-07-29T12:05:42;98524.80;;;27.99;48.31
76337;BME280;65157;50.082;18.178;2023-07-29T12:08:08;98526.76;;;27.94;48.04
76337;BME280;65157;50.082;18.178;2023-07-29T12:10:34;98531.17;;;27.85;48.62
76337;BME280;65157;50.082;18.178;2023-07-29T12:13:02;98524.95;;;27.79;49.64
76337;BME280;65157;50.082;18.178;2023-07-29T12:15:29;98521.60;;;27.83;49.39
76337;BME280;65157;50.082;18.178;2023-07-29T12:17:57;98517.98;;;27.87;49.39
76337;BME280;65157;50.082;18.178;2023-07-29T12:20:26;98509.55;;;27.98;50.46
76337;BME280;65157;50.082;18.178;2023-07-29T12:23:12;98506.23;;;28.17;50.02
76337;BME280;65157;50.082;18.178;2023-07-29T12:25:38;98498.60;;;28.33;50.49
76337;BME280;65157;50.082;18.178;2023-07-29T12:28:08;98498.00;;;28.48;51.08
76337;BME280;65157;50.082;18.178;2023-07-29T12:30:34;98493.82;;;28.73;50.07
76337;BME280;65157;50.082;18.178;2023-07-29T12:33:00;98494.73;;;28.88;49.27
76337;BME280;65157;50.082;18.178;2023-07-29T12:35:36;98494.11;;;28.87;48.08
76337;BME280;65157;50.082;18.178;2023-07-29T12:38:02;98492.71;;;28.76;48.05
76337;BME280;65157;50.082;18.178;2023-07-29T12:40:29;98490.31;;;28.65;48.68
76337;BME280;65157;50.082;18.178;2023-07-29T12:42:55;98486.52;;;28.50;48.18
76337;BME280;65157;50.082;18.178;2023-07-29T12:45:21;98484.92;;;28.34;48.40
76337;BME280;65157;50.082;18.178;2023-07-29T12:47:47;98483.14;;;28.19;47.53
76337;BME280;65157;50.082;18.178;2023-07-29T12:50:13;98482.92;;;28.09;49.13
76337;BME280;65157;50.082;18.178;2023-07-29T12:52:39;98484.46;;;28.10;49.15
76337;BME280;65157;50.082;18.178;2023-07-29T12:55:06;98485.27;;;28.18;49.73
76337;BME280;65157;50.082;18.178;2023-07-29T12:57:32;98486.95;;;28.27;50.23
76337;BME280;65157;50.082;18.178;2023-07-29T12:59:58;98488.25;;;28.37;49.86